Time;durP1;ratioP1;P1;durP2;ratioP2;P2;SDS_P1;SDS_P2;PMS_P1;PMS_P2;Temp;Humidity;BMP_temperature;BMP_pressure;BME280_temperature;BME280_humidity;BME280_pressure;Samples;Min_cycle;Max_cycle;Signal;HPM_P1;HPM_P2
2023/07/14 00:01:52;;;;;;;3.07;2.20;;;27.00;42.50;;;;;;4994921;28;20464;-68
2023/07/14 00:04:27;;;;;;;3.13;2.03;;;27.00;42.50;;;;;;4994781;28;20192;-67
2023/07/14 00:06:53;;;;;;;2.27;1.80;;;27.00;42.50;;;;;;4994997;28;20903;-68
2023/07/14 00:09:30;;;;;;;3.87;2.10;;;27.00;42.40;;;;;;4995202;28;20420;-68
2023/07/14 00:11:56;;;;;;;4.00;2.27;;;27.00;42.50;;;;;;4994793;28;20638;-67
2023/07/14 00:14:22;;;;;;;2.10;1.90;;;27.00;42.50;;;;;;4994717;28;20539;-67
2023/07/14 00:16:47;;;;;;;2.80;1.83;;;27.00;42.40;;;;;;4995039;28;20626;-68
2023/07/14 00:19:16;;;;;;;2.67;1.83;;;27.00;42.50;;;;;;4995299;28;20562;-68
2023/07/14 00:21:42;;;;;;;2.87;2.43;;;27.00;42.50;;;;;;4994611;28;20199;-68
2023/07/14 00:24:12;;;;;;;3.97;2.10;;;27.00;42.50;;;;;;4994886;28;20412;-68
2023/07/14 00:26:40;;;;;;;3.10;2.20;;;27.00;42.60;;;;;;4994563;28;20412;-67
2023/07/14 00:29:30;;;;;;;2.30;1.93;;;27.00;42.60;;;;;;4994828;28;20494;-68
2023/07/14 00:31:57;;;;;;;2.60;2.10;;;27.00;42.80;;;;;;4995303;28;20424;-68
2023/07/14 00:34:23;;;;;;;3.53;2.00;;;26.90;42.60;;;;;;4998420;28;20576;-68
2023/07/14 00:36:49;;;;;;;2.67;1.67;;;26.90;42.70;;;;;;4997933;28;20416;-68
2023/07/14 00:39:15;;;;;;;2.97;2.17;;;26.90;42.70;;;;;;4997135;28;20444;-67
2023/07/14 00:41:40;;;;;;;2.17;1.97;;;26.90;42.70;;;;;;4997972;28;20435;-68
2023/07/14 00:44:12;;;;;;;2.30;1.77;;;26.90;42.70;;;;;;4998095;28;20231;-68
2023/07/14 00:46:38;;;;;;;3.77;2.57;;;26.90;42.70;;;;;;4997701;28;20177;-68
2023/07/14 00:49:11;;;;;;;2.03;1.70;;;26.90;42.60;;;;;;4996750;28;20420;-68
2023/07/14 00:51:39;;;;;;;2.80;2.20;;;26.90;42.70;;;;;;4997790;28;20165;-68
2023/07/14 00:54:06;;;;;;;4.73;2.63;;;26.90;42.70;;;;;;4996690;28;20424;-68
2023/07/14 00:56:42;;;;;;;2.33;1.90;;;26.90;42.70;;;;;;4997436;28;20424;-68
2023/07/14 00:59:16;;;;;;;2.50;1.87;;;26.90;42.80;;;;;;4997573;28;20406;-68
2023/07/14 01:02:10;;;;;;;2.93;1.87;;;26.90;42.80;;;;;;4997211;28;20470;-68
2023/07/14 01:05:01;;;;;;;2.43;2.00;;;26.90;42.90;;;;;;4997447;28;20842;-68
2023/07/14 01:07:37;;;;;;;2.60;2.23;;;26.90;42.80;;;;;;4988334;28;20448;-67
2023/07/14 01:10:05;;;;;;;2.67;1.87;;;26.80;42.70;;;;;;4996997;28;20404;-67
2023/07/14 01:12:35;;;;;;;2.83;1.77;;;26.90;42.80;;;;;;4997361;28;21152;-67
2023/07/14 01:15:03;;;;;;;5.77;2.13;;;26.90;42.80;;;;;;4997010;28;20451;-68
2023/07/14 01:17:29;;;;;;;3.67;1.67;;;26.80;42.70;;;;;;4996460;28;20436;-67
2023/07/14 01:20:00;;;;;;;2.40;1.70;;;26.90;42.80;;;;;;4997654;28;20423;-67
2023/07/14 01:22:53;;;;;;;3.10;2.13;;;26.90;42.90;;;;;;4997320;28;20228;-67
2023/07/14 01:25:25;;;;;;;2.10;1.73;;;26.90;42.90;;;;;;4997108;28;20906;-67
2023/07/14 01:27:50;;;;;;;3.07;2.10;;;26.80;42.80;;;;;;4995595;28;20918;-67
2023/07/14 01:30:19;;;;;;;1.90;1.70;;;26.80;42.90;;;;;;4997097;28;20455;-68
2023/07/14 01:32:46;;;;;;;3.60;2.37;;;26.80;42.90;;;;;;4996767;28;20178;-68
2023/07/14 01:35:13;;;;;;;3.47;2.27;;;26.80;42.90;;;;;;4996806;28;20455;-68
2023/07/14 01:37:39;;;;;;;2.00;1.87;;;26.80;42.90;;;;;;4996768;28;20470;-68
2023/07/14 01:40:13;;;;;;;2.43;2.10;;;26.80;42.90;;;;;;4996650;28;20423;-68
2023/07/14 01:42:43;;;;;;;3.20;1.97;;;26.80;43.00;;;;;;4996828;28;20404;-68
2023/07/14 01:45:16;;;;;;;3.40;2.50;;;26.80;43.00;;;;;;4997133;28;20443;-68
2023/07/14 01:47:49;;;;;;;2.67;2.20;;;26.80;43.00;;;;;;4996304;28;20467;-68
2023/07/14 01:50:25;;;;;;;2.67;1.97;;;26.80;43.00;;;;;;4996630;28;20420;-68
2023/07/14 01:52:55;;;;;;;2.97;2.07;;;26.80;43.00;;;;;;4996764;28;20397;-68
2023/07/14 01:55:23;;;;;;;3.80;1.90;;;26.80;43.00;;;;;;4996123;28;20494;-68
2023/07/14 01:57:54;;;;;;;3.50;2.20;;;26.80;43.00;;;;;;4996227;28;20428;-68
2023/07/14 02:00:20;;;;;;;3.37;2.10;;;26.80;43.00;;;;;;4996372;28;20451;-68
2023/07/14 02:02:48;;;;;;;2.70;1.90;;;26.80;42.90;;;;;;4994988;28;20412;-67
2023/07/14 02:05:17;;;;;;;2.53;2.20;;;26.80;42.90;;;;;;4995875;28;20181;-68
2023/07/14 02:07:43;;;;;;;3.07;2.07;;;26.80;43.00;;;;;;4996039;28;20443;-67
2023/07/14 02:10:19;;;;;;;2.90;2.10;;;26.70;42.90;;;;;;4995856;28;20408;-67
2023/07/14 02:12:46;;;;;;;1.97;1.63;;;26.80;43.00;;;;;;4996382;28;20169;-68
2023/07/14 02:15:27;;;;;;;2.37;2.10;;;26.80;43.00;;;;;;4994864;28;20468;-68
2023/07/14 02:17:54;;;;;;;3.87;1.93;;;26.80;43.10;;;;;;4995594;28;20452;-68
2023/07/14 02:20:30;;;;;;;2.90;2.37;;;26.70;42.90;;;;;;4994497;28;20428;-68
2023/07/14 02:22:58;;;;;;;2.57;2.00;;;26.70;43.00;;;;;;4995898;28;20399;-68
2023/07/14 02:25:27;;;;;;;2.90;2.03;;;26.70;42.90;;;;;;4995582;28;20519;-68
2023/07/14 02:27:52;;;;;;;6.57;2.13;;;26.70;43.00;;;;;;4995757;28;20498;-68
2023/07/14 02:30:22;;;;;;;3.33;2.07;;;26.70;42.90;;;;;;4995214;28;20797;-68
2023/07/14 02:32:53;;;;;;;3.23;2.03;;;26.70;42.90;;;;;;4995315;28;20173;-68
2023/07/14 02:35:43;;;;;;;2.67;1.97;;;26.70;43.00;;;;;;4995479;28;20444;-68
2023/07/14 02:38:12;;;;;;;3.00;1.70;;;26.70;42.90;;;;;;4995317;28;20421;-68
2023/07/14 02:41:02;;;;;;;2.77;1.90;;;26.70;42.90;;;;;;4994938;28;20416;-67
2023/07/14 02:43:27;;;;;;;3.03;2.60;;;26.70;43.00;;;;;;4994579;28;20483;-67
2023/07/14 02:46:03;;;;;;;5.20;1.93;;;26.60;42.80;;;;;;4994530;28;20460;-67
2023/07/14 02:48:47;;;;;;;3.37;2.27;;;26.70;42.90;;;;;;4994119;28;20292;-68
2023/07/14 02:51:14;;;;;;;6.13;2.20;;;26.60;42.80;;;;;;4994400;28;20906;-67
2023/07/14 02:53:40;;;;;;;3.60;2.30;;;26.60;42.80;;;;;;4992915;28;20424;-67
2023/07/14 02:56:06;;;;;;;2.20;1.60;;;26.60;42.80;;;;;;4993708;28;20463;-67
2023/07/14 02:58:33;;;;;;;2.10;1.83;;;26.60;42.80;;;;;;4994194;28;20432;-68
2023/07/14 03:00:58;;;;;;;3.13;1.47;;;26.60;42.80;;;;;;4993873;28;20439;-68
2023/07/14 03:03:24;;;;;;;3.30;2.30;;;26.60;42.80;;;;;;4992922;28;20427;-67
2023/07/14 03:05:51;;;;;;;2.60;2.00;;;26.60;42.90;;;;;;4994389;28;20397;-68
2023/07/14 03:08:18;;;;;;;1.97;1.80;;;26.60;43.50;;;;;;4993979;28;20207;-68
2023/07/14 03:10:56;;;;;;;2.70;2.00;;;26.60;42.90;;;;;;4993889;28;20416;-66
2023/07/14 03:13:22;;;;;;;5.23;1.87;;;26.60;42.90;;;;;;4994127;28;20750;-67
2023/07/14 03:15:47;;;;;;;2.70;1.97;;;26.60;43.40;;;;;;4994074;28;20558;-67
2023/07/14 03:18:14;;;;;;;3.33;2.37;;;26.60;42.90;;;;;;4994268;28;20203;-67
2023/07/14 03:20:40;;;;;;;2.80;2.07;;;26.60;42.90;;;;;;4992796;28;20180;-67
2023/07/14 03:23:06;;;;;;;3.30;2.20;;;26.60;42.90;;;;;;4994143;28;20413;-66
2023/07/14 03:25:35;;;;;;;3.27;2.00;;;26.50;42.80;;;;;;4994239;28;20783;-68
2023/07/14 03:28:02;;;;;;;2.10;1.80;;;26.60;42.90;;;;;;4994279;28;20208;-68
2023/07/14 03:30:28;;;;;;;4.67;2.50;;;26.60;42.90;;;;;;4994079;28;20412;-67
2023/07/14 03:32:53;;;;;;;2.27;2.07;;;26.60;42.90;;;;;;4994069;28;20759;-67
2023/07/14 03:35:19;;;;;;;2.70;2.03;;;26.50;42.80;;;;;;4994006;28;20464;-68
2023/07/14 03:37:45;;;;;;;4.23;2.27;;;26.50;42.90;;;;;;4994135;28;20211;-67
2023/07/14 03:40:11;;;;;;;2.33;1.83;;;26.50;42.90;;;;;;4994393;28;20553;-67
2023/07/14 03:42:41;;;;;;;3.20;2.33;;;26.50;42.90;;;;;;4994509;28;20811;-67
2023/07/14 03:45:07;;;;;;;4.20;1.90;;;26.50;42.90;;;;;;4994330;28;20420;-68
2023/07/14 03:47:33;;;;;;;2.43;2.07;;;26.50;43.00;;;;;;4994201;28;20964;-68
2023/07/14 03:49:59;;;;;;;3.37;1.70;;;26.50;43.00;;;;;;4994415;28;20416;-66
2023/07/14 03:52:25;;;;;;;2.10;1.70;;;26.50;43.00;;;;;;4994247;28;20583;-67
2023/07/14 03:54:51;;;;;;;5.70;2.17;;;26.50;43.00;;;;;;4992981;28;20685;-67
2023/07/14 03:57:16;;;;;;;3.77;2.03;;;26.50;43.10;;;;;;4994215;28;20436;-67
2023/07/14 03:59:42;;;;;;;2.60;2.20;;;26.40;43.00;;;;;;4994417;28;20172;-67
2023/07/14 04:02:07;;;;;;;2.70;1.90;;;26.50;43.10;;;;;;4994344;28;20547;-67
2023/07/14 04:04:33;;;;;;;3.73;2.30;;;26.50;43.10;;;;;;4994698;28;20617;-67
2023/07/14 04:06:58;;;;;;;3.63;2.30;;;26.50;43.10;;;;;;4997248;28;20235;-67
2023/07/14 04:09:24;;;;;;;2.90;1.97;;;26.40;43.10;;;;;;4999072;28;20185;-66
2023/07/14 04:11:50;;;;;;;3.60;2.20;;;26.50;43.20;;;;;;4997781;28;20185;-66
2023/07/14 04:14:16;;;;;;;3.50;2.07;;;26.40;43.10;;;;;;4998807;28;20172;-66
2023/07/14 04:16:42;;;;;;;5.10;2.27;;;26.40;43.20;;;;;;4998570;28;20231;-67
2023/07/14 04:19:07;;;;;;;2.27;1.80;;;26.40;43.20;;;;;;4999384;28;20188;-67
2023/07/14 04:21:33;;;;;;;3.03;1.83;;;26.40;43.20;;;;;;4998693;28;20417;-67
2023/07/14 04:23:59;;;;;;;2.50;2.20;;;26.50;43.30;;;;;;4999664;28;20666;-68
2023/07/14 04:26:26;;;;;;;7.13;2.13;;;26.50;43.30;;;;;;4999865;28;20447;-67
2023/07/14 04:28:53;;;;;;;3.20;1.93;;;26.50;43.30;;;;;;4998865;28;20232;-66
2023/07/14 04:31:18;;;;;;;4.97;1.93;;;26.40;43.30;;;;;;4998818;28;20474;-67
2023/07/14 04:33:46;;;;;;;2.70;2.00;;;26.50;43.30;;;;;;4998862;28;20411;-67
2023/07/14 04:36:13;;;;;;;3.20;2.27;;;26.50;43.30;;;;;;4998316;28;20227;-67
2023/07/14 04:38:41;;;;;;;2.80;2.20;;;26.50;43.30;;;;;;4996809;28;20432;-67
2023/07/14 04:41:07;;;;;;;3.03;2.40;;;26.50;43.30;;;;;;4998451;28;20412;-67
2023/07/14 04:43:33;;;;;;;3.83;2.60;;;26.50;43.30;;;;;;4997834;28;20889;-67
2023/07/14 04:45:59;;;;;;;3.90;2.30;;;26.50;43.40;;;;;;4998140;28;20207;-67
2023/07/14 04:48:24;;;;;;;3.30;2.07;;;26.50;43.40;;;;;;4997960;28;20527;-67
2023/07/14 04:50:51;;;;;;;6.07;2.50;;;26.50;43.40;;;;;;4997915;28;20188;-68
2023/07/14 04:53:19;;;;;;;3.80;1.90;;;26.50;43.90;;;;;;4996761;28;20807;-68
2023/07/14 04:55:46;;;;;;;3.40;2.37;;;26.50;43.30;;;;;;4998107;28;20855;-67
2023/07/14 04:58:15;;;;;;;3.13;2.10;;;26.50;43.30;;;;;;4997020;28;20424;-68
2023/07/14 05:00:42;;;;;;;2.10;1.90;;;26.50;43.30;;;;;;4996245;28;20455;-67
2023/07/14 05:03:09;;;;;;;3.27;2.37;;;26.60;43.40;;;;;;4995939;28;20452;-68
2023/07/14 05:05:34;;;;;;;2.20;2.00;;;26.60;43.40;;;;;;4995796;28;20447;-67
2023/07/14 05:08:01;;;;;;;7.60;2.70;;;26.60;43.40;;;;;;4995841;28;20933;-67
2023/07/14 05:10:28;;;;;;;9.13;2.60;;;26.60;43.40;;;;;;4996832;28;20561;-67
2023/07/14 05:12:56;;;;;;;3.93;2.30;;;26.60;43.40;;;;;;4997662;28;20426;-67
2023/07/14 05:15:24;;;;;;;4.53;2.40;;;26.60;43.40;;;;;;4996847;28;20459;-67
2023/07/14 05:17:50;;;;;;;2.73;2.50;;;26.60;43.30;;;;;;4997356;28;20436;-67
2023/07/14 05:20:18;;;;;;;2.90;2.13;;;26.60;43.30;;;;;;4997786;28;20443;-68
2023/07/14 05:22:45;;;;;;;2.40;2.10;;;26.60;43.30;;;;;;4997471;28;20499;-68
2023/07/14 05:25:12;;;;;;;3.57;2.10;;;26.60;43.40;;;;;;4998419;28;20460;-68
2023/07/14 05:27:38;;;;;;;6.03;2.30;;;26.60;43.40;;;;;;4997710;28;20436;-68
2023/07/14 05:30:06;;;;;;;3.23;2.00;;;26.60;43.40;;;;;;4996486;28;20432;-68
2023/07/14 05:32:32;;;;;;;2.13;1.87;;;26.60;43.30;;;;;;4997814;28;20192;-68
2023/07/14 05:34:58;;;;;;;2.80;2.20;;;26.60;43.40;;;;;;4996319;28;20491;-68
2023/07/14 05:37:24;;;;;;;3.30;2.27;;;26.60;43.30;;;;;;4997390;28;20483;-67
2023/07/14 05:39:50;;;;;;;3.50;2.20;;;26.60;43.40;;;;;;4998237;28;20412;-68
2023/07/14 05:42:15;;;;;;;3.20;1.80;;;26.60;43.40;;;;;;4997901;28;20173;-67
2023/07/14 05:44:41;;;;;;;2.23;2.03;;;26.60;43.40;;;;;;4998205;28;20514;-68
2023/07/14 05:47:07;;;;;;;2.70;1.70;;;26.60;43.30;;;;;;4998344;28;20200;-68
2023/07/14 05:49:33;;;;;;;3.30;2.27;;;26.60;43.30;;;;;;4998269;28;20169;-68
2023/07/14 05:51:59;;;;;;;4.70;2.30;;;26.60;43.30;;;;;;4997202;28;20708;-68
2023/07/14 05:54:24;;;;;;;2.50;1.97;;;26.60;43.30;;;;;;4997904;28;20458;-67
2023/07/14 05:56:50;;;;;;;3.13;2.23;;;26.60;43.30;;;;;;4997915;28;20562;-67
2023/07/14 05:59:17;;;;;;;4.80;2.13;;;26.60;43.30;;;;;;4998309;28;20260;-68
2023/07/14 06:01:45;;;;;;;2.50;2.00;;;26.60;43.30;;;;;;4998109;28;20432;-68
2023/07/14 06:04:11;;;;;;;4.17;2.30;;;26.60;43.30;;;;;;4998331;28;20447;-67
2023/07/14 06:06:37;;;;;;;2.97;2.20;;;26.60;43.30;;;;;;4997596;28;20408;-67
2023/07/14 06:09:03;;;;;;;4.93;2.33;;;26.60;43.30;;;;;;4997218;28;20200;-68
2023/07/14 06:11:29;;;;;;;3.07;1.73;;;26.70;43.40;;;;;;4998110;28;20181;-68
2023/07/14 06:13:56;;;;;;;3.47;1.97;;;26.60;43.30;;;;;;4997806;28;20451;-68
2023/07/14 06:16:22;;;;;;;4.63;2.43;;;26.70;43.30;;;;;;4998299;28;20510;-68
2023/07/14 06:18:51;;;;;;;2.30;2.10;;;26.70;43.30;;;;;;4997786;28;20830;-68
2023/07/14 06:21:17;;;;;;;2.97;2.30;;;26.70;43.30;;;;;;4997287;28;20416;-68
2023/07/14 06:23:43;;;;;;;3.77;2.30;;;26.60;43.30;;;;;;4998173;28;20431;-68
2023/07/14 06:26:09;;;;;;;4.13;2.03;;;26.70;43.40;;;;;;4998293;28;20412;-69
2023/07/14 06:28:34;;;;;;;3.70;2.30;;;26.70;43.40;;;;;;4998255;28;20655;-68
2023/07/14 06:31:04;;;;;;;3.40;2.40;;;26.70;43.40;;;;;;4996986;28;20540;-68
2023/07/14 06:33:30;;;;;;;7.40;2.20;;;26.70;43.40;;;;;;4997681;28;20192;-68
2023/07/14 06:35:57;;;;;;;3.80;2.60;;;26.70;43.50;;;;;;4997476;28;20467;-68
2023/07/14 06:38:22;;;;;;;3.67;2.67;;;26.70;43.50;;;;;;4996067;28;20451;-69
2023/07/14 06:41:09;;;;;;;3.97;2.20;;;26.70;43.60;;;;;;4997449;28;20910;-68
2023/07/14 06:43:34;;;;;;;3.73;2.83;;;26.70;43.50;;;;;;4997425;28;20223;-68
2023/07/14 06:46:00;;;;;;;2.33;2.13;;;26.70;43.60;;;;;;4995889;28;20416;-68
2023/07/14 06:48:26;;;;;;;3.40;2.33;;;26.70;43.70;;;;;;4996980;28;20203;-68
2023/07/14 06:50:59;;;;;;;3.43;2.30;;;26.70;43.70;;;;;;5072966;28;20542;-68
2023/07/14 06:53:25;;;;;;;3.17;1.90;;;26.70;43.70;;;;;;5072298;28;20446;-67
2023/07/14 06:55:51;;;;;;;3.53;2.20;;;26.70;43.70;;;;;;5072846;28;20178;-68
2023/07/14 06:58:16;;;;;;;2.90;2.50;;;26.70;43.70;;;;;;5072594;28;20960;-67
2023/07/14 07:00:42;;;;;;;2.80;2.17;;;26.70;43.80;;;;;;5073154;28;20492;-68
2023/07/14 07:03:08;;;;;;;3.03;2.30;;;26.70;43.80;;;;;;5072824;28;20186;-68
2023/07/14 07:05:39;;;;;;;4.00;2.43;;;26.70;43.90;;;;;;5071621;28;20181;-67
2023/07/14 07:08:09;;;;;;;4.57;2.10;;;26.70;44.70;;;;;;5071815;28;20183;-67
2023/07/14 07:10:34;;;;;;;3.53;2.20;;;26.70;44.10;;;;;;5071408;28;20456;-68
2023/07/14 07:13:00;;;;;;;3.27;2.50;;;26.70;44.10;;;;;;5071450;28;20824;-68
2023/07/14 07:15:26;;;;;;;5.10;2.73;;;26.70;44.10;;;;;;5071310;28;20170;-67
2023/07/14 07:17:51;;;;;;;2.30;1.80;;;26.70;44.10;;;;;;5070662;28;20533;-68
2023/07/14 07:20:17;;;;;;;4.10;2.57;;;26.70;44.10;;;;;;5071054;28;20174;-67
2023/07/14 07:22:46;;;;;;;3.37;2.50;;;26.70;44.10;;;;;;5071365;28;20175;-67
2023/07/14 07:25:12;;;;;;;2.67;2.33;;;26.70;44.10;;;;;;5069590;28;20599;-68
2023/07/14 07:27:38;;;;;;;2.93;1.93;;;26.70;44.10;;;;;;5070732;28;20459;-67
2023/07/14 07:30:04;;;;;;;2.40;2.20;;;26.80;44.10;;;;;;5071029;28;20284;-67
2023/07/14 07:32:31;;;;;;;2.23;1.97;;;26.70;44.00;;;;;;5070959;28;20170;-67
2023/07/14 07:34:59;;;;;;;3.03;2.20;;;26.70;44.00;;;;;;5071110;28;20454;-67
2023/07/14 07:37:31;;;;;;;3.83;2.17;;;26.80;44.10;;;;;;5071053;28;20865;-67
2023/07/14 07:39:59;;;;;;;2.60;2.07;;;26.80;44.10;;;;;;5070856;28;20991;-67
2023/07/14 07:42:27;;;;;;;2.53;2.30;;;26.80;44.10;;;;;;5070863;28;20781;-68
2023/07/14 07:44:52;;;;;;;3.77;2.23;;;26.80;44.10;;;;;;5071206;28;20420;-68
2023/07/14 07:47:18;;;;;;;2.97;2.10;;;26.80;44.40;;;;;;5070507;28;20937;-68
2023/07/14 07:49:43;;;;;;;5.03;2.37;;;26.80;44.20;;;;;;5070254;28;20214;-67
2023/07/14 07:52:12;;;;;;;5.40;1.90;;;26.80;44.20;;;;;;5070960;28;20166;-68
2023/07/14 07:54:41;;;;;;;2.73;2.00;;;26.80;44.20;;;;;;5070630;28;20226;-68
2023/07/14 07:57:08;;;;;;;2.80;2.20;;;26.80;44.20;;;;;;5070217;28;21071;-67
2023/07/14 07:59:35;;;;;;;3.47;2.20;;;26.80;44.20;;;;;;5070083;28;20932;-67
2023/07/14 08:02:01;;;;;;;3.27;2.20;;;26.80;44.20;;;;;;5058807;28;20416;-67
2023/07/14 08:04:28;;;;;;;2.43;2.00;;;26.80;44.20;;;;;;5056223;28;20422;-68
2023/07/14 08:06:54;;;;;;;4.00;2.40;;;26.80;44.30;;;;;;5057293;28;20409;-68
2023/07/14 08:09:20;;;;;;;2.53;2.03;;;26.80;44.40;;;;;;5057596;28;21027;-68
2023/07/14 08:11:46;;;;;;;3.83;1.93;;;26.80;44.50;;;;;;5057587;28;20167;-68
2023/07/14 08:14:17;;;;;;;2.70;2.10;;;26.80;44.60;;;;;;5057592;28;20417;-68
2023/07/14 08:16:43;;;;;;;2.87;2.47;;;26.80;44.60;;;;;;5057553;28;20386;-68
2023/07/14 08:19:10;;;;;;;2.43;1.77;;;26.80;44.60;;;;;;5057831;28;20501;-67
2023/07/14 08:21:37;;;;;;;1.77;1.67;;;26.90;44.70;;;;;;5057571;28;20420;-69
2023/07/14 08:24:04;;;;;;;2.43;2.10;;;26.90;44.80;;;;;;5057190;28;20410;-68
2023/07/14 08:26:32;;;;;;;3.70;2.13;;;26.90;44.80;;;;;;5057105;28;20405;-68
2023/07/14 08:28:58;;;;;;;4.00;2.13;;;26.90;44.80;;;;;;5057056;28;20548;-68
2023/07/14 08:31:24;;;;;;;2.50;1.90;;;26.90;44.90;;;;;;5057304;28;20433;-68
2023/07/14 08:33:51;;;;;;;2.40;2.03;;;26.90;44.90;;;;;;5057484;28;20163;-69
2023/07/14 08:36:17;;;;;;;3.10;2.10;;;26.90;44.90;;;;;;5054706;28;20171;-67
2023/07/14 08:38:43;;;;;;;2.67;1.73;;;26.90;45.00;;;;;;5054037;28;20429;-67
2023/07/14 08:41:28;;;;;;;3.00;2.00;;;26.90;45.00;;;;;;5054095;28;20416;-67
2023/07/14 08:44:11;;;;;;;3.83;1.90;;;27.00;45.00;;;;;;5054344;28;20765;-66
2023/07/14 08:47:15;;;;;;;2.10;1.70;;;26.90;45.00;;;;;;5054194;28;20945;-67
2023/07/14 08:49:58;;;;;;;2.80;2.40;;;26.90;45.00;;;;;;5053675;28;20468;-66
2023/07/14 08:52:32;;;;;;;2.70;2.23;;;27.00;45.00;;;;;;5054178;28;20394;-67
2023/07/14 08:55:01;;;;;;;3.67;2.40;;;26.90;45.00;;;;;;5054036;28;20480;-66
2023/07/14 08:57:28;;;;;;;4.03;2.00;;;27.00;45.10;;;;;;5053730;28;20442;-65
2023/07/14 09:00:03;;;;;;;2.70;1.87;;;26.90;45.00;;;;;;5053617;28;20412;-65
2023/07/14 09:02:41;;;;;;;3.00;1.83;;;27.00;45.10;;;;;;5053764;28;20477;-67
2023/07/14 09:05:27;;;;;;;3.07;2.00;;;27.00;45.10;;;;;;5053856;28;20405;-66
2023/07/14 09:07:54;;;;;;;3.13;2.13;;;27.00;45.00;;;;;;5053508;28;20430;-67
2023/07/14 09:10:41;;;;;;;2.03;1.60;;;27.00;45.00;;;;;;5052107;28;20453;-66
2023/07/14 09:13:36;;;;;;;3.10;1.80;;;27.00;45.00;;;;;;5051178;28;20435;-66
2023/07/14 09:16:03;;;;;;;2.90;2.10;;;27.10;45.10;;;;;;5042935;28;20933;-66
2023/07/14 09:18:40;;;;;;;2.53;1.70;;;27.00;45.00;;;;;;5053571;28;20429;-66
2023/07/14 09:21:18;;;;;;;2.23;1.67;;;27.10;45.00;;;;;;5053444;28;20798;-68
2023/07/14 09:23:56;;;;;;;1.90;1.60;;;27.10;45.00;;;;;;5053273;28;20411;-66
2023/07/14 09:26:31;;;;;;;1.93;1.60;;;27.10;45.00;;;;;;5051832;28;20449;-67
2023/07/14 09:28:58;;;;;;;3.40;1.97;;;27.10;45.00;;;;;;5053189;28;20468;-66
2023/07/14 09:31:30;;;;;;;2.53;1.83;;;27.10;45.00;;;;;;5053127;28;20405;-66
2023/07/14 09:33:59;;;;;;;3.03;1.70;;;27.10;44.90;;;;;;5053146;28;20944;-67
2023/07/14 09:36:27;;;;;;;5.13;1.87;;;27.10;45.00;;;;;;5051839;28;20470;-66
2023/07/14 09:38:58;;;;;;;5.17;1.60;;;27.10;44.90;;;;;;5052847;28;20425;-67
2023/07/14 09:41:28;;;;;;;4.20;1.70;;;27.10;44.80;;;;;;5052880;28;20441;-66
2023/07/14 09:43:58;;;;;;;2.43;2.00;;;27.10;44.80;;;;;;5053184;28;20898;-66
2023/07/14 09:46:25;;;;;;;2.00;1.47;;;27.10;44.70;;;;;;5052953;28;20402;-67
2023/07/14 09:48:55;;;;;;;2.70;1.83;;;27.10;44.70;;;;;;5052604;28;20457;-66
2023/07/14 09:51:25;;;;;;;5.50;2.07;;;27.10;44.70;;;;;;5052964;28;20420;-68
2023/07/14 09:54:21;;;;;;;2.30;1.67;;;27.10;45.30;;;;;;5053074;28;20436;-66
2023/07/14 09:56:46;;;;;;;3.03;1.57;;;27.10;44.60;;;;;;5047832;28;20922;-67
2023/07/14 09:59:20;;;;;;;1.70;1.40;;;27.10;44.70;;;;;;5052611;28;20409;-67
2023/07/14 10:01:51;;;;;;;3.70;1.70;;;27.20;44.70;;;;;;5052569;28;20300;-67
2023/07/14 10:04:17;;;;;;;3.50;1.60;;;27.10;44.60;;;;;;5052409;28;21043;-66
2023/07/14 10:06:47;;;;;;;6.07;2.10;;;27.10;44.60;;;;;;5051801;28;20409;-68
2023/07/14 10:09:16;;;;;;;2.80;1.93;;;27.10;44.50;;;;;;5054853;28;20195;-67
2023/07/14 10:11:48;;;;;;;2.23;1.50;;;27.20;44.70;;;;;;5056451;28;20429;-67
2023/07/14 10:14:17;;;;;;;2.80;1.80;;;27.20;44.60;;;;;;5056204;28;20412;-68
2023/07/14 10:16:44;;;;;;;3.30;1.70;;;27.20;44.60;;;;;;5055798;28;20413;-69
2023/07/14 10:19:16;;;;;;;4.53;2.10;;;27.20;44.60;;;;;;5057135;28;20821;-68
2023/07/14 10:21:55;;;;;;;2.00;1.43;;;27.20;44.60;;;;;;5056313;28;20479;-69
2023/07/14 10:24:21;;;;;;;2.70;1.77;;;27.20;44.50;;;;;;5054882;28;20413;-68
2023/07/14 10:27:18;;;;;;;2.63;1.40;;;27.20;44.60;;;;;;5056602;28;20539;-69
2023/07/14 10:29:50;;;;;;;2.20;1.90;;;27.20;44.70;;;;;;5056422;28;20463;-68
2023/07/14 10:32:31;;;;;;;2.00;1.80;;;27.10;44.50;;;;;;5055466;28;20492;-69
2023/07/14 10:35:08;;;;;;;2.90;1.83;;;27.20;44.50;;;;;;5055975;28;20405;-68
2023/07/14 10:37:40;;;;;;;2.37;1.90;;;27.20;44.50;;;;;;5056337;28;20452;-68
2023/07/14 10:40:14;;;;;;;2.77;1.70;;;27.20;44.40;;;;;;5056049;28;20406;-68
2023/07/14 10:42:52;;;;;;;1.97;1.77;;;27.20;44.40;;;;;;5055308;28;20397;-68
2023/07/14 10:45:18;;;;;;;2.90;1.97;;;27.20;44.30;;;;;;5055481;28;20386;-68
2023/07/14 10:47:50;;;;;;;2.77;2.17;;;27.20;44.20;;;;;;5055285;28;20945;-67
2023/07/14 10:50:32;;;;;;;4.70;1.83;;;27.20;44.10;;;;;;5047579;28;20212;-68
2023/07/14 10:53:04;;;;;;;2.07;1.73;;;27.20;44.10;;;;;;5035663;28;20406;-69
2023/07/14 10:55:32;;;;;;;3.40;2.40;;;27.20;44.20;;;;;;5033973;28;20413;-69
2023/07/14 10:58:38;;;;;;;4.47;3.00;;;27.20;44.20;;;;;;5034985;28;20418;-68
2023/07/14 11:01:12;;;;;;;4.37;2.80;;;27.20;44.30;;;;;;5035300;28;20430;-68
2023/07/14 11:03:48;;;;;;;5.77;2.97;;;27.10;44.20;;;;;;5035671;28;20394;-69
2023/07/14 11:06:18;;;;;;;6.80;4.10;;;27.20;44.30;;;;;;5035982;28;20390;-68
2023/07/14 11:08:49;;;;;;;9.10;3.73;;;27.20;44.40;;;;;;5035762;28;20426;-68
2023/07/14 11:11:24;;;;;;;7.80;5.10;;;27.20;44.40;;;;;;5036241;28;20403;-68
2023/07/14 11:13:58;;;;;;;8.27;5.27;;;27.20;44.30;;;;;;5035676;28;20394;-68
2023/07/14 11:16:32;;;;;;;7.77;4.60;;;27.20;44.30;;;;;;5035891;28;20421;-68
2023/07/14 11:19:08;;;;;;;6.70;4.40;;;27.20;44.30;;;;;;5035428;28;20414;-69
2023/07/14 11:21:51;;;;;;;9.37;5.30;;;27.20;44.30;;;;;;5034038;28;20406;-68
2023/07/14 11:24:25;;;;;;;8.07;4.70;;;27.20;44.20;;;;;;5036167;28;20402;-68
2023/07/14 11:27:11;;;;;;;9.07;5.00;;;27.20;44.20;;;;;;5035500;28;20394;-68
2023/07/14 11:29:53;;;;;;;8.20;4.77;;;27.10;44.20;;;;;;5034497;28;21044;-68
2023/07/14 11:32:22;;;;;;;6.80;4.20;;;27.20;44.20;;;;;;5034417;28;20390;-68
2023/07/14 11:35:02;;;;;;;8.97;5.20;;;27.20;44.20;;;;;;5035557;28;20434;-66
2023/07/14 11:37:51;;;;;;;8.57;4.40;;;27.10;44.20;;;;;;5039040;28;20418;-69
2023/07/14 11:40:21;;;;;;;7.20;4.13;;;27.20;44.30;;;;;;5040077;28;20398;-68
2023/07/14 11:43:08;;;;;;;6.37;4.40;;;27.20;44.40;;;;;;5039894;28;20387;-67
2023/07/14 11:45:34;;;;;;;11.10;4.13;;;27.20;44.40;;;;;;5039134;28;20391;-67
2023/07/14 11:48:00;;;;;;;6.67;4.10;;;27.10;44.40;;;;;;5039242;28;20436;-68
2023/07/14 11:50:30;;;;;;;4.93;3.40;;;27.10;44.30;;;;;;5039437;28;20199;-67
2023/07/14 11:53:00;;;;;;;6.33;4.00;;;27.10;44.40;;;;;;5039361;28;20394;-68
2023/07/14 11:55:27;;;;;;;6.70;3.83;;;27.20;44.40;;;;;;5038778;28;20405;-69
2023/07/14 11:58:26;;;;;;;9.10;4.67;;;27.20;44.40;;;;;;5039016;28;20488;-67
2023/07/14 12:01:00;;;;;;;5.20;3.63;;;27.20;44.50;;;;;;5038630;28;20437;-69
2023/07/14 12:03:40;;;;;;;5.07;3.13;;;27.20;44.50;;;;;;5039045;28;20416;-67
2023/07/14 12:06:18;;;;;;;6.50;3.17;;;27.10;44.50;;;;;;5038864;28;20414;-67
2023/07/14 12:08:44;;;;;;;12.87;4.97;;;27.20;44.60;;;;;;5038157;28;20449;-67
2023/07/14 12:11:28;;;;;;;5.13;2.90;;;27.20;44.60;;;;;;5038494;28;20438;-66
2023/07/14 12:13:54;;;;;;;5.00;3.00;;;27.20;44.60;;;;;;5038890;28;20949;-67
2023/07/14 12:16:46;;;;;;;3.50;2.97;;;27.20;45.10;;;;;;5038582;28;20525;-67
2023/07/14 12:19:26;;;;;;;3.87;3.20;;;27.20;44.50;;;;;;5038958;28;20171;-67
2023/07/14 12:22:09;;;;;;;8.90;2.80;;;27.20;44.40;;;;;;5038710;28;20402;-66
2023/07/14 12:24:50;;;;;;;2.87;2.30;;;27.20;44.40;;;;;;5038363;28;20410;-68
2023/07/14 12:27:34;;;;;;;2.77;2.50;;;27.20;44.30;;;;;;5037998;28;20438;-67
2023/07/14 12:30:27;;;;;;;3.60;3.03;;;27.20;44.30;;;;;;5036709;28;20466;-67
2023/07/14 12:33:01;;;;;;;4.57;2.90;;;27.10;44.20;;;;;;5037985;28;20402;-66
2023/07/14 12:35:28;;;;;;;4.90;3.30;;;27.10;44.20;;;;;;5037139;28;20900;-67
2023/07/14 12:37:53;;;;;;;4.53;2.63;;;27.10;44.20;;;;;;5038276;28;20432;-67
2023/07/14 12:40:22;;;;;;;5.63;3.20;;;27.20;44.40;;;;;;5037938;28;20403;-67
2023/07/14 12:42:50;;;;;;;3.23;2.67;;;27.20;44.40;;;;;;5038432;28;20180;-68
2023/07/14 12:45:18;;;;;;;3.87;2.60;;;27.20;44.40;;;;;;5037523;28;20402;-68
2023/07/14 12:47:47;;;;;;;3.00;2.70;;;27.20;44.40;;;;;;5034472;28;20418;-68
2023/07/14 12:50:19;;;;;;;3.23;2.53;;;27.20;44.40;;;;;;5034278;28;20482;-67
2023/07/14 12:52:47;;;;;;;3.33;2.70;;;27.20;44.40;;;;;;5036174;28;20438;-67
2023/07/14 12:55:15;;;;;;;3.90;2.60;;;27.20;44.40;;;;;;5034211;28;20418;-67
2023/07/14 12:57:41;;;;;;;2.97;2.43;;;27.20;44.50;;;;;;5034926;28;20437;-67
2023/07/14 13:00:19;;;;;;;4.10;2.63;;;27.20;44.60;;;;;;5034742;28;20406;-67
2023/07/14 13:02:45;;;;;;;4.70;3.00;;;27.20;44.60;;;;;;5033737;28;20441;-67
2023/07/14 13:05:12;;;;;;;6.40;2.73;;;27.20;44.60;;;;;;5035344;28;20945;-68